sensor_id;sensor_type;location;lat;lon;timestamp;temperature;humidity
10042;DHT22;5061;49.068;12.058;2022-09-09T00:00:00;15.70;99.90
10042;DHT22;5061;49.068;12.058;2022-09-09T00:03:26;15.60;99.90
10042;DHT22;5061;49.068;12.058;2022-09-09T00:06:52;15.60;99.90
10042;DHT22;5061;49.068;12.058;2022-09-09T00:10:34;15.60;99.90
10042;DHT22;5061;49.068;12.058;2022-09-09T00:13:59;15.60;99.90
10042;DHT22;5061;49.068;12.058;2022-09-09T00:17:26;15.60;99.90
10042;DHT22;5061;49.068;12.058;2022-09-09T00:20:58;15.50;99.90
10042;DHT22;5061;49.068;12.058;2022-09-09T00:25:02;15.50;99.90
10042;DHT22;5061;49.068;12.058;2022-09-09T00:28:22;15.50;99.90
10042;DHT22;5061;49.068;12.058;2022-09-09T00:31:43;15.50;99.90
10042;DHT22;5061;49.068;12.058;2022-09-09T00:35:25;15.50;99.90
10042;DHT22;5061;49.068;12.058;2022-09-09T00:38:51;15.50;99.90
10042;DHT22;5061;49.068;12.058;2022-09-09T00:42:18;15.40;99.90
10042;DHT22;5061;49.068;12.058;2022-09-09T00:52:59;15.40;99.90
10042;DHT22;5061;49.068;12.058;2022-09-09T00:56:47;15.40;99.90
10042;DHT22;5061;49.068;12.058;2022-09-09T01:00:27;15.40;99.90
10042;DHT22;5061;49.068;12.058;2022-09-09T01:03:52;15.40;99.90
10042;DHT22;5061;49.068;12.058;2022-09-09T01:07:17;15.40;99.90
10042;DHT22;5061;49.068;12.058;2022-09-09T01:10:52;15.40;99.90
10042;DHT22;5061;49.068;12.058;2022-09-09T01:14:38;15.40;99.90
10042;DHT22;5061;49.068;12.058;2022-09-09T01:18:13;15.40;99.90
10042;DHT22;5061;49.068;12.058;2022-09-09T01:22:01;15.40;99.90
10042;DHT22;5061;49.068;12.058;2022-09-09T01:29:25;15.40;99.90
10042;DHT22;5061;49.068;12.058;2022-09-09T01:32:48;15.40;99.90
10042;DHT22;5061;49.068;12.058;2022-09-09T01:36:19;15.40;99.90
10042;DHT22;5061;49.068;12.058;2022-09-09T01:39:43;15.40;99.90
10042;DHT22;5061;49.068;12.058;2022-09-09T01:43:04;15.40;99.90
10042;DHT22;5061;49.068;12.058;2022-09-09T01:46:27;15.40;99.90
10042;DHT22;5061;49.068;12.058;2022-09-09T01:49:49;15.40;99.90
10042;DHT22;5061;49.068;12.058;2022-09-09T01:53:10;15.40;99.90
10042;DHT22;5061;49.068;12.058;2022-09-09T02:00:26;15.40;99.90
10042;DHT22;5061;49.068;12.058;2022-09-09T02:03:51;15.40;99.90
10042;DHT22;5061;49.068;12.058;2022-09-09T02:07:28;15.40;99.90
10042;DHT22;5061;49.068;12.058;2022-09-09T02:11:06;15.40;99.90
10042;DHT22;5061;49.068;12.058;2022-09-09T02:14:35;15.40;99.90
10042;DHT22;5061;49.068;12.058;2022-09-09T02:17:58;15.40;99.90
10042;DHT22;5061;49.068;12.058;2022-09-09T02:21:22;15.30;99.90
10042;DHT22;5061;49.068;12.058;2022-09-09T02:24:44;15.30;99.90
10042;DHT22;5061;49.068;12.058;2022-09-09T02:28:07;15.30;99.90
10042;DHT22;5061;49.068;12.058;2022-09-09T02:31:30;15.30;99.90
10042;DHT22;5061;49.068;12.058;2022-09-09T02:34:56;15.20;99.90
10042;DHT22;5061;49.068;12.058;2022-09-09T02:38:19;15.20;99.90
10042;DHT22;5061;49.068;12.058;2022-09-09T02:41:42;15.20;99.90
10042;DHT22;5061;49.068;12.058;2022-09-09T02:45:03;15.20;99.90
10042;DHT22;5061;49.068;12.058;2022-09-09T02:48:44;15.20;99.90
10042;DHT22;5061;49.068;12.058;2022-09-09T02:52:10;15.20;99.90
10042;DHT22;5061;49.068;12.058;2022-09-09T02:55:45;15.20;99.90
10042;DHT22;5061;49.068;12.058;2022-09-09T02:59:07;15.30;99.90
10042;DHT22;5061;49.068;12.058;2022-09-09T03:02:27;15.30;99.90
10042;DHT22;5061;49.068;12.058;2022-09-09T03:05:48;15.30;99.90
10042;DHT22;5061;49.068;12.058;2022-09-09T03:09:08;15.30;99.90
10042;DHT22;5061;49.068;12.058;2022-09-09T03:12:30;15.30;99.90
10042;DHT22;5061;49.068;12.058;2022-09-09T03:15:51;15.30;99.90
10042;DHT22;5061;49.068;12.058;2022-09-09T03:19:12;15.30;99.90
10042;DHT22;5061;49.068;12.058;2022-09-09T03:22:33;15.30;99.90
10042;DHT22;5061;49.068;12.058;2022-09-09T03:25:53;15.30;99.90
10042;DHT22;5061;49.068;12.058;2022-09-09T03:29:17;15.30;99.90
10042;DHT22;5061;49.068;12.058;2022-09-09T03:32:38;15.20;99.90
10042;DHT22;5061;49.068;12.058;2022-09-09T03:36:00;15.20;99.90
10042;DHT22;5061;49.068;12.058;2022-09-09T03:39:21;15.20;99.90
10042;DHT22;5061;49.068;12.058;2022-09-09T03:42:42;15.30;99.90
10042;DHT22;5061;49.068;12.058;2022-09-09T03:46:02;15.30;99.90
10042;DHT22;5061;49.068;12.058;2022-09-09T03:49:23;15.30;99.90
10042;DHT22;5061;49.068;12.058;2022-09-09T03:52:44;15.20;99.90
10042;DHT22;5061;49.068;12.058;2022-09-09T03:56:05;15.20;99.90
10042;DHT22;5061;49.068;12.058;2022-09-09T03:59:27;15.20;99.90
10042;DHT22;5061;49.068;12.058;2022-09-09T04:02:47;15.20;99.90
10042;DHT22;5061;49.068;12.058;2022-09-09T04:06:11;15.20;99.90
10042;DHT22;5061;49.068;12.058;2022-09-09T04:09:33;15.20;99.90
10042;DHT22;5061;49.068;12.058;2022-09-09T04:12:55;15.20;99.90
10042;DHT22;5061;49.068;12.058;2022-09-09T04:16:15;15.20;99.90
10042;DHT22;5061;49.068;12.058;2022-09-09T04:19:36;15.20;99.90
10042;DHT22;5061;49.068;12.058;2022-09-09T04:22:56;15.10;99.90
10042;DHT22;5061;49.068;12.058;2022-09-09T04:26:17;15.10;99.90
10042;DHT22;5061;49.068;12.058;2022-09-09T04:29:38;15.00;99.90
10042;DHT22;5061;49.068;12.058;2022-09-09T04:32:59;15.00;99.90
10042;DHT22;5061;49.068;12.058;2022-09-09T04:36:19;15.00;99.90
10042;DHT22;5061;49.068;12.058;2022-09-09T04:39:40;15.00;99.90
10042;DHT22;5061;49.068;12.058;2022-09-09T04:43:03;15.00;99.90
10042;DHT22;5061;49.068;12.058;2022-09-09T04:46:25;15.00;99.90
10042;DHT22;5061;49.068;12.058;2022-09-09T04:49:45;15.00;99.90
10042;DHT22;5061;49.068;12.058;2022-09-09T04:53:06;15.00;99.90
10042;DHT22;5061;49.068;12.058;2022-09-09T04:56:27;15.00;99.90
10042;DHT22;5061;49.068;12.058;2022-09-09T04:59:48;15.10;99.90
10042;DHT22;5061;49.068;12.058;2022-09-09T05:03:09;15.10;99.90
10042;DHT22;5061;49.068;12.058;2022-09-09T05:06:29;15.10;99.90
10042;DHT22;5061;49.068;12.058;2022-09-09T05:09:51;15.00;99.90
10042;DHT22;5061;49.068;12.058;2022-09-09T05:13:12;15.10;99.90
10042;DHT22;5061;49.068;12.058;2022-09-09T05:16:32;15.00;99.90
10042;DHT22;5061;49.068;12.058;2022-09-09T05:19:53;15.10;99.90
10042;DHT22;5061;49.068;12.058;2022-09-09T05:23:14;15.00;99.90
10042;DHT22;5061;49.068;12.058;2022-09-09T05:26:35;15.10;99.90
10042;DHT22;5061;49.068;12.058;2022-09-09T05:29:55;15.10;99.90
10042;DHT22;5061;49.068;12.058;2022-09-09T05:33:17;15.10;99.90
10042;DHT22;5061;49.068;12.058;2022-09-09T05:36:37;15.10;99.90
10042;DHT22;5061;49.068;12.058;2022-09-09T05:39:58;15.00;99.90
10042;DHT22;5061;49.068;12.058;2022-09-09T05:43:19;15.00;99.90
10042;DHT22;5061;49.068;12.058;2022-09-09T05:46:40;15.00;99.90
10042;DHT22;5061;49.068;12.058;2022-09-09T05:50:01;15.10;99.90
10042;DHT22;5061;49.068;12.058;2022-09-09T05:53:22;15.10;99.90
10042;DHT22;5061;49.068;12.058;2022-09-09T05:56:42;15.10;99.90
10042;DHT22;5061;49.068;12.058;2022-09-09T06:00:03;15.10;99.90
10042;DHT22;5061;49.068;12.058;2022-09-09T06:03:24;15.10;99.90
10042;DHT22;5061;49.068;12.058;2022-09-09T06:06:45;15.10;99.90
10042;DHT22;5061;49.068;12.058;2022-09-09T06:10:05;15.10;99.90
10042;DHT22;5061;49.068;12.058;2022-09-09T06:13:26;15.10;99.90
10042;DHT22;5061;49.068;12.058;2022-09-09T06:16:47;15.10;99.90
10042;DHT22;5061;49.068;12.058;2022-09-09T06:20:07;15.10;99.90
10042;DHT22;5061;49.068;12.058;2022-09-09T06:23:30;15.10;99.90
10042;DHT22;5061;49.068;12.058;2022-09-09T06:26:51;15.10;99.90
10042;DHT22;5061;49.068;12.058;2022-09-09T06:30:11;15.10;99.90
10042;DHT22;5061;49.068;12.058;2022-09-09T06:33:42;15.10;99.90
10042;DHT22;5061;49.068;12.058;2022-09-09T06:37:03;15.10;99.90
10042;DHT22;5061;49.068;12.058;2022-09-09T06:40:25;15.20;99.90
10042;DHT22;5061;49.068;12.058;2022-09-09T06:43:46;15.10;99.90
10042;DHT22;5061;49.068;12.058;2022-09-09T06:47:07;15.10;99.90
10042;DHT22;5061;49.068;12.058;2022-09-09T06:50:28;15.10;99.90
10042;DHT22;5061;49.068;12.058;2022-09-09T06:53:54;15.10;99.90
10042;DHT22;5061;49.068;12.058;2022-09-09T06:57:15;15.10;99.90
10042;DHT22;5061;49.068;12.058;2022-09-09T07:00:35;15.20;99.90
10042;DHT22;5061;49.068;12.058;2022-09-09T07:03:58;15.20;99.90
10042;DHT22;5061;49.068;12.058;2022-09-09T07:07:19;15.30;99.90
10042;DHT22;5061;49.068;12.058;2022-09-09T07:10:40;15.40;99.90
10042;DHT22;5061;49.068;12.058;2022-09-09T07:14:01;15.50;99.90
10042;DHT22;5061;49.068;12.058;2022-09-09T07:17:21;15.60;99.90
10042;DHT22;5061;49.068;12.058;2022-09-09T07:20:42;15.70;99.90
10042;DHT22;5061;49.068;12.058;2022-09-09T07:24:03;15.80;99.90
10042;DHT22;5061;49.068;12.058;2022-09-09T07:27:27;15.90;99.90
10042;DHT22;5061;49.068;12.058;2022-09-09T07:31:00;16.00;99.90
10042;DHT22;5061;49.068;12.058;2022-09-09T07:34:23;16.10;99.90
10042;DHT22;5061;49.068;12.058;2022-09-09T07:37:43;16.20;99.90
10042;DHT22;5061;49.068;12.058;2022-09-09T07:41:07;16.30;99.90
10042;DHT22;5061;49.068;12.058;2022-09-09T07:44:33;16.30;99.90
10042;DHT22;5061;49.068;12.058;2022-09-09T07:47:55;16.30;99.90
10042;DHT22;5061;49.068;12.058;2022-09-09T07:51:27;16.30;99.90
10042;DHT22;5061;49.068;12.058;2022-09-09T07:54:48;16.30;99.90
10042;DHT22;5061;49.068;12.058;2022-09-09T07:58:09;16.20;99.90
10042;DHT22;5061;49.068;12.058;2022-09-09T08:01:35;16.10;99.90
10042;DHT22;5061;49.068;12.058;2022-09-09T08:04:59;16.00;99.90
10042;DHT22;5061;49.068;12.058;2022-09-09T08:08:19;16.00;99.90
10042;DHT22;5061;49.068;12.058;2022-09-09T08:11:41;15.90;99.90
10042;DHT22;5061;49.068;12.058;2022-09-09T08:15:02;15.80;99.90
10042;DHT22;5061;49.068;12.058;2022-09-09T08:18:22;15.70;99.90
10042;DHT22;5061;49.068;12.058;2022-09-09T08:21:45;15.70;99.90
10042;DHT22;5061;49.068;12.058;2022-09-09T08:25:06;15.70;99.90
10042;DHT22;5061;49.068;12.058;2022-09-09T08:28:27;15.70;99.90
10042;DHT22;5061;49.068;12.058;2022-09-09T08:31:50;15.70;99.90
10042;DHT22;5061;49.068;12.058;2022-09-09T08:35:11;15.70;99.90
10042;DHT22;5061;49.068;12.058;2022-09-09T08:38:33;15.70;99.90
10042;DHT22;5061;49.068;12.058;2022-09-09T08:45:35;15.70;99.90
10042;DHT22;5061;49.068;12.058;2022-09-09T08:53:05;15.70;99.90
10042;DHT22;5061;49.068;12.058;2022-09-09T08:56:31;15.80;99.90
10042;DHT22;5061;49.068;12.058;2022-09-09T08:59:52;15.90;99.90
10042;DHT22;5061;49.068;12.058;2022-09-09T09:03:30;15.90;99.90
10042;DHT22;5061;49.068;12.058;2022-09-09T09:10:50;16.00;99.90
10042;DHT22;5061;49.068;12.058;2022-09-09T09:14:25;16.00;99.90
10042;DHT22;5061;49.068;12.058;2022-09-09T09:17:46;16.10;99.90
10042;DHT22;5061;49.068;12.058;2022-09-09T09:28:39;16.40;99.90
10042;DHT22;5061;49.068;12.058;2022-09-09T09:32:02;16.50;99.90
10042;DHT22;5061;49.068;12.058;2022-09-09T09:35:23;16.50;99.90
10042;DHT22;5061;49.068;12.058;2022-09-09T09:38:56;16.60;99.90
10042;DHT22;5061;49.068;12.058;2022-09-09T09:42:17;16.70;99.90
10042;DHT22;5061;49.068;12.058;2022-09-09T09:45:43;16.70;99.90
10042;DHT22;5061;49.068;12.058;2022-09-09T09:49:09;16.80;99.90
10042;DHT22;5061;49.068;12.058;2022-09-09T09:52:31;16.90;99.90
10042;DHT22;5061;49.068;12.058;2022-09-09T09:56:08;17.10;99.90
10042;DHT22;5061;49.068;12.058;2022-09-09T09:59:33;17.30;99.90
10042;DHT22;5061;49.068;12.058;2022-09-09T10:02:54;17.40;99.90
10042;DHT22;5061;49.068;12.058;2022-09-09T10:06:16;17.60;99.90
10042;DHT22;5061;49.068;12.058;2022-09-09T10:09:37;17.70;99.90
10042;DHT22;5061;49.068;12.058;2022-09-09T10:20:28;18.00;99.90
10042;DHT22;5061;49.068;12.058;2022-09-09T10:35:08;18.50;99.90
10042;DHT22;5061;49.068;12.058;2022-09-09T10:38:45;18.60;99.90
10042;DHT22;5061;49.068;12.058;2022-09-09T10:42:13;18.70;99.90
10042;DHT22;5061;49.068;12.058;2022-09-09T10:45:43;18.70;99.90
10042;DHT22;5061;49.068;12.058;2022-09-09T10:56:29;19.00;99.90
10042;DHT22;5061;49.068;12.058;2022-09-09T10:59:53;19.00;99.90
10042;DHT22;5061;49.068;12.058;2022-09-09T11:03:26;19.00;99.90
10042;DHT22;5061;49.068;12.058;2022-09-09T11:06:54;19.00;99.90
10042;DHT22;5061;49.068;12.058;2022-09-09T11:10:23;19.00;99.90
10042;DHT22;5061;49.068;12.058;2022-09-09T11:17:24;19.20;99.90
10042;DHT22;5061;49.068;12.058;2022-09-09T11:20:51;19.40;99.90
10042;DHT22;5061;49.068;12.058;2022-09-09T11:24:33;19.50;99.90
10042;DHT22;5061;49.068;12.058;2022-09-09T11:31:43;19.60;99.90
10042;DHT22;5061;49.068;12.058;2022-09-09T11:35:30;19.70;99.90
10042;DHT22;5061;49.068;12.058;2022-09-09T11:39:14;19.70;99.90
10042;DHT22;5061;49.068;12.058;2022-09-09T11:42:38;19.90;99.90
10042;DHT22;5061;49.068;12.058;2022-09-09T11:46:02;20.10;99.90
10042;DHT22;5061;49.068;12.058;2022-09-09T11:49:40;20.20;99.90
10042;DHT22;5061;49.068;12.058;2022-09-09T11:53:19;20.50;99.90
10042;DHT22;5061;49.068;12.058;2022-09-09T11:56:44;20.70;99.90
10042;DHT22;5061;49.068;12.058;2022-09-09T12:00:06;20.80;99.90
10042;DHT22;5061;49.068;12.058;2022-09-09T12:10:30;21.10;99.90
10042;DHT22;5061;49.068;12.058;2022-09-09T12:13:59;21.40;99.90
10042;DHT22;5061;49.068;12.058;2022-09-09T12:17:24;21.50;99.90
10042;DHT22;5061;49.068;12.058;2022-09-09T12:21:19;21.50;99.90
10042;DHT22;5061;49.068;12.058;2022-09-09T12:31:51;21.40;99.90
10042;DHT22;5061;49.068;12.058;2022-09-09T12:35:27;21.30;99.90
10042;DHT22;5061;49.068;12.058;2022-09-09T12:38:48;21.10;99.90
10042;DHT22;5061;49.068;12.058;2022-09-09T12:42:17;21.00;99.90
10042;DHT22;5061;49.068;12.058;2022-09-09T12:45:40;20.90;99.90
10042;DHT22;5061;49.068;12.058;2022-09-09T12:49:01;20.80;99.90
10042;DHT22;5061;49.068;12.058;2022-09-09T12:52:30;20.70;99.90
10042;DHT22;5061;49.068;12.058;2022-09-09T12:55:57;20.60;99.90
10042;DHT22;5061;49.068;12.058;2022-09-09T12:59:23;20.60;99.90
10042;DHT22;5061;49.068;12.058;2022-09-09T13:02:47;20.50;99.90
10042;DHT22;5061;49.068;12.058;2022-09-09T13:06:13;20.50;99.90
10042;DHT22;5061;49.068;12.058;2022-09-09T13:09:34;20.40;99.90
10042;DHT22;5061;49.068;12.058;2022-09-09T13:12:55;20.40;99.90
10042;DHT22;5061;49.068;12.058;2022-09-09T13:19:43;20.30;99.90
10042;DHT22;5061;49.068;12.058;2022-09-09T13:23:05;20.40;99.90
10042;DHT22;5061;49.068;12.058;2022-09-09T13:26:26;20.40;99.90
10042;DHT22;5061;49.068;12.058;2022-09-09T13:29:56;20.40;99.90
10042;DHT22;5061;49.068;12.058;2022-09-09T13:33:21;20.40;99.90
10042;DHT22;5061;49.068;12.058;2022-09-09T13:36:47;20.40;99.90
10042;DHT22;5061;49.068;12.058;2022-09-09T13:40:20;20.60;99.90
10042;DHT22;5061;49.068;12.058;2022-09-09T13:43:46;20.90;99.90
10042;DHT22;5061;49.068;12.058;2022-09-09T13:50:36;21.20;99.90
10042;DHT22;5061;49.068;12.058;2022-09-09T13:53:57;21.10;99.90
10042;DHT22;5061;49.068;12.058;2022-09-09T13:57:21;21.00;99.90
10042;DHT22;5061;49.068;12.058;2022-09-09T14:00:42;20.90;99.90
10042;DHT22;5061;49.068;12.058;2022-09-09T14:04:04;20.80;99.90
10042;DHT22;5061;49.068;12.058;2022-09-09T14:07:26;20.80;99.90
10042;DHT22;5061;49.068;12.058;2022-09-09T14:10:47;21.00;99.90
10042;DHT22;5061;49.068;12.058;2022-09-09T14:14:08;21.10;99.90
10042;DHT22;5061;49.068;12.058;2022-09-09T14:17:28;21.20;99.90
10042;DHT22;5061;49.068;12.058;2022-09-09T14:20:50;21.30;99.90
10042;DHT22;5061;49.068;12.058;2022-09-09T14:24:11;21.40;99.90
10042;DHT22;5061;49.068;12.058;2022-09-09T14:27:32;21.50;99.90
10042;DHT22;5061;49.068;12.058;2022-09-09T14:30:53;21.70;99.90
10042;DHT22;5061;49.068;12.058;2022-09-09T14:34:14;21.90;99.90
10042;DHT22;5061;49.068;12.058;2022-09-09T14:37:34;22.10;99.90
10042;DHT22;5061;49.068;12.058;2022-09-09T14:40:55;22.00;99.90
10042;DHT22;5061;49.068;12.058;2022-09-09T14:44:16;21.90;99.90
10042;DHT22;5061;49.068;12.058;2022-09-09T14:47:37;21.70;99.90
10042;DHT22;5061;49.068;12.058;2022-09-09T14:51:05;21.60;99.90
10042;DHT22;5061;49.068;12.058;2022-09-09T14:54:25;21.50;99.90
10042;DHT22;5061;49.068;12.058;2022-09-09T14:57:46;21.40;99.90
10042;DHT22;5061;49.068;12.058;2022-09-09T15:01:09;21.30;99.90
10042;DHT22;5061;49.068;12.058;2022-09-09T15:04:31;21.20;99.90
10042;DHT22;5061;49.068;12.058;2022-09-09T15:07:52;21.10;99.90
10042;DHT22;5061;49.068;12.058;2022-09-09T15:11:14;21.00;99.90
10042;DHT22;5061;49.068;12.058;2022-09-09T15:14:35;21.00;99.90
10042;DHT22;5061;49.068;12.058;2022-09-09T15:17:55;21.00;99.90
10042;DHT22;5061;49.068;12.058;2022-09-09T15:21:18;20.90;99.90
10042;DHT22;5061;49.068;12.058;2022-09-09T15:24:39;20.80;99.90
10042;DHT22;5061;49.068;12.058;2022-09-09T15:28:00;20.70;99.90
10042;DHT22;5061;49.068;12.058;2022-09-09T15:31:24;20.60;99.90
10042;DHT22;5061;49.068;12.058;2022-09-09T15:34:45;20.60;99.90
10042;DHT22;5061;49.068;12.058;2022-09-09T15:38:06;20.50;99.90
10042;DHT22;5061;49.068;12.058;2022-09-09T15:41:27;20.40;99.90
10042;DHT22;5061;49.068;12.058;2022-09-09T15:44:48;20.30;99.90
10042;DHT22;5061;49.068;12.058;2022-09-09T15:48:09;20.20;99.90
10042;DHT22;5061;49.068;12.058;2022-09-09T15:51:29;20.20;99.90
10042;DHT22;5061;49.068;12.058;2022-09-09T15:54:50;20.10;99.90
10042;DHT22;5061;49.068;12.058;2022-09-09T15:58:11;20.10;99.90
10042;DHT22;5061;49.068;12.058;2022-09-09T16:01:32;20.10;99.90
10042;DHT22;5061;49.068;12.058;2022-09-09T16:04:54;20.10;99.90
10042;DHT22;5061;49.068;12.058;2022-09-09T16:08:15;20.00;99.90
10042;DHT22;5061;49.068;12.058;2022-09-09T16:11:37;19.90;99.90
10042;DHT22;5061;49.068;12.058;2022-09-09T16:14:59;19.90;99.90
10042;DHT22;5061;49.068;12.058;2022-09-09T16:18:20;19.80;99.90
10042;DHT22;5061;49.068;12.058;2022-09-09T16:21:43;19.70;99.90
10042;DHT22;5061;49.068;12.058;2022-09-09T16:25:04;19.60;99.90
10042;DHT22;5061;49.068;12.058;2022-09-09T16:28:26;19.50;99.90
10042;DHT22;5061;49.068;12.058;2022-09-09T16:31:47;19.40;99.90
10042;DHT22;5061;49.068;12.058;2022-09-09T16:35:08;19.40;99.90
10042;DHT22;5061;49.068;12.058;2022-09-09T16:38:29;19.30;99.90
10042;DHT22;5061;49.068;12.058;2022-09-09T16:41:50;19.30;99.90
10042;DHT22;5061;49.068;12.058;2022-09-09T16:45:12;19.20;99.90
10042;DHT22;5061;49.068;12.058;2022-09-09T16:48:34;19.20;99.90
10042;DHT22;5061;49.068;12.058;2022-09-09T16:51:59;19.10;99.90
10042;DHT22;5061;49.068;12.058;2022-09-09T16:55:19;19.00;99.90
10042;DHT22;5061;49.068;12.058;2022-09-09T16:58:50;18.90;99.40
10042;DHT22;5061;49.068;12.058;2022-09-09T17:02:11;18.70;99.20
10042;DHT22;5061;49.068;12.058;2022-09-09T17:05:31;18.50;99.30
10042;DHT22;5061;49.068;12.058;2022-09-09T17:09:00;18.40;99.40
10042;DHT22;5061;49.068;12.058;2022-09-09T17:12:25;18.30;99.80
10042;DHT22;5061;49.068;12.058;2022-09-09T17:15:45;18.20;99.50
10042;DHT22;5061;49.068;12.058;2022-09-09T17:19:06;18.10;99.50
10042;DHT22;5061;49.068;12.058;2022-09-09T17:22:29;18.00;99.70
10042;DHT22;5061;49.068;12.058;2022-09-09T17:25:57;17.90;99.90
10042;DHT22;5061;49.068;12.058;2022-09-09T17:29:18;17.90;99.90
10042;DHT22;5061;49.068;12.058;2022-09-09T17:32:39;17.80;99.90
10042;DHT22;5061;49.068;12.058;2022-09-09T17:36:02;17.80;99.90
10042;DHT22;5061;49.068;12.058;2022-09-09T17:39:23;17.70;99.90
10042;DHT22;5061;49.068;12.058;2022-09-09T17:42:44;17.60;99.90
10042;DHT22;5061;49.068;12.058;2022-09-09T17:46:08;17.50;99.90
10042;DHT22;5061;49.068;12.058;2022-09-09T17:49:29;17.50;99.90
10042;DHT22;5061;49.068;12.058;2022-09-09T17:52:50;17.40;99.90
10042;DHT22;5061;49.068;12.058;2022-09-09T17:56:13;17.30;99.90
10042;DHT22;5061;49.068;12.058;2022-09-09T17:59:34;17.30;99.90
10042;DHT22;5061;49.068;12.058;2022-09-09T18:02:55;17.20;99.90
10042;DHT22;5061;49.068;12.058;2022-09-09T18:06:21;17.10;99.90
10042;DHT22;5061;49.068;12.058;2022-09-09T18:09:44;17.00;99.90
10042;DHT22;5061;49.068;12.058;2022-09-09T18:13:06;16.90;99.90
10042;DHT22;5061;49.068;12.058;2022-09-09T18:16:32;17.00;99.90
10042;DHT22;5061;49.068;12.058;2022-09-09T18:19:56;16.90;99.90
10042;DHT22;5061;49.068;12.058;2022-09-09T18:23:16;16.80;99.90
10042;DHT22;5061;49.068;12.058;2022-09-09T18:26:38;16.80;99.90
10042;DHT22;5061;49.068;12.058;2022-09-09T18:29:59;16.80;99.90
10042;DHT22;5061;49.068;12.058;2022-09-09T18:33:19;16.70;99.90
10042;DHT22;5061;49.068;12.058;2022-09-09T18:36:48;16.70;99.90
10042;DHT22;5061;49.068;12.058;2022-09-09T18:40:12;16.70;99.90
10042;DHT22;5061;49.068;12.058;2022-09-09T18:43:33;16.70;99.90
10042;DHT22;5061;49.068;12.058;2022-09-09T18:46:54;16.70;99.90
10042;DHT22;5061;49.068;12.058;2022-09-09T18:50:15;16.60;99.90
10042;DHT22;5061;49.068;12.058;2022-09-09T18:53:36;16.60;99.90
10042;DHT22;5061;49.068;12.058;2022-09-09T18:56:57;16.60;99.90
10042;DHT22;5061;49.068;12.058;2022-09-09T19:00:20;16.60;99.90
10042;DHT22;5061;49.068;12.058;2022-09-09T19:03:40;16.50;99.90
10042;DHT22;5061;49.068;12.058;2022-09-09T19:07:01;16.50;99.90
10042;DHT22;5061;49.068;12.058;2022-09-09T19:10:22;16.40;99.90
10042;DHT22;5061;49.068;12.058;2022-09-09T19:13:43;16.40;99.90
10042;DHT22;5061;49.068;12.058;2022-09-09T19:17:03;16.30;99.90
10042;DHT22;5061;49.068;12.058;2022-09-09T19:20:24;16.20;99.90
10042;DHT22;5061;49.068;12.058;2022-09-09T19:23:45;16.20;99.90
10042;DHT22;5061;49.068;12.058;2022-09-09T19:27:06;16.10;99.90
10042;DHT22;5061;49.068;12.058;2022-09-09T19:30:27;16.10;99.90
10042;DHT22;5061;49.068;12.058;2022-09-09T19:33:47;16.00;99.90
10042;DHT22;5061;49.068;12.058;2022-09-09T19:37:08;15.90;99.90
10042;DHT22;5061;49.068;12.058;2022-09-09T19:40:29;16.00;99.90
10042;DHT22;5061;49.068;12.058;2022-09-09T19:43:51;15.90;99.90
10042;DHT22;5061;49.068;12.058;2022-09-09T19:47:12;15.80;99.90
10042;DHT22;5061;49.068;12.058;2022-09-09T19:50:34;15.80;99.90
10042;DHT22;5061;49.068;12.058;2022-09-09T19:54:00;15.80;99.90
10042;DHT22;5061;49.068;12.058;2022-09-09T19:57:22;15.70;99.90
10042;DHT22;5061;49.068;12.058;2022-09-09T20:00:44;15.70;99.90
10042;DHT22;5061;49.068;12.058;2022-09-09T20:04:04;15.70;99.90
10042;DHT22;5061;49.068;12.058;2022-09-09T20:07:25;15.70;99.90
10042;DHT22;5061;49.068;12.058;2022-09-09T20:10:51;15.70;99.90
10042;DHT22;5061;49.068;12.058;2022-09-09T20:14:13;15.70;99.90
10042;DHT22;5061;49.068;12.058;2022-09-09T20:17:34;15.60;99.90
10042;DHT22;5061;49.068;12.058;2022-09-09T20:21:16;15.60;99.90
10042;DHT22;5061;49.068;12.058;2022-09-09T20:24:39;15.60;99.90
10042;DHT22;5061;49.068;12.058;2022-09-09T20:28:03;15.60;99.90
10042;DHT22;5061;49.068;12.058;2022-09-09T20:31:34;15.60;99.90
10042;DHT22;5061;49.068;12.058;2022-09-09T20:35:02;15.60;99.90
10042;DHT22;5061;49.068;12.058;2022-09-09T20:38:23;15.50;99.90
10042;DHT22;5061;49.068;12.058;2022-09-09T20:41:44;15.50;99.90
10042;DHT22;5061;49.068;12.058;2022-09-09T20:45:05;15.50;99.90
10042;DHT22;5061;49.068;12.058;2022-09-09T20:48:26;15.50;99.90
10042;DHT22;5061;49.068;12.058;2022-09-09T20:51:48;15.50;99.90
10042;DHT22;5061;49.068;12.058;2022-09-09T20:55:09;15.50;99.90
10042;DHT22;5061;49.068;12.058;2022-09-09T20:58:30;15.40;99.90
10042;DHT22;5061;49.068;12.058;2022-09-09T21:01:52;15.40;99.90
10042;DHT22;5061;49.068;12.058;2022-09-09T21:05:13;15.40;99.90
10042;DHT22;5061;49.068;12.058;2022-09-09T21:08:36;15.40;99.90
10042;DHT22;5061;49.068;12.058;2022-09-09T21:11:57;15.40;99.90
10042;DHT22;5061;49.068;12.058;2022-09-09T21:15:18;15.40;99.90
10042;DHT22;5061;49.068;12.058;2022-09-09T21:18:39;15.30;99.90
10042;DHT22;5061;49.068;12.058;2022-09-09T21:22:00;15.30;99.90
10042;DHT22;5061;49.068;12.058;2022-09-09T21:25:20;15.20;99.90
10042;DHT22;5061;49.068;12.058;2022-09-09T21:28:41;15.10;99.90
10042;DHT22;5061;49.068;12.058;2022-09-09T21:32:02;15.00;99.90
10042;DHT22;5061;49.068;12.058;2022-09-09T21:35:23;15.00;99.90
10042;DHT22;5061;49.068;12.058;2022-09-09T21:38:44;15.00;99.90
10042;DHT22;5061;49.068;12.058;2022-09-09T21:42:04;14.90;99.90
10042;DHT22;5061;49.068;12.058;2022-09-09T21:45:25;14.90;99.90
10042;DHT22;5061;49.068;12.058;2022-09-09T21:48:47;15.00;99.90
10042;DHT22;5061;49.068;12.058;2022-09-09T21:52:09;15.00;99.90
10042;DHT22;5061;49.068;12.058;2022-09-09T21:55:34;15.00;99.90
10042;DHT22;5061;49.068;12.058;2022-09-09T21:58:58;15.00;99.90
10042;DHT22;5061;49.068;12.058;2022-09-09T22:02:19;15.00;99.90
10042;DHT22;5061;49.068;12.058;2022-09-09T22:05:42;15.00;99.90
10042;DHT22;5061;49.068;12.058;2022-09-09T22:09:03;15.00;99.90
10042;DHT22;5061;49.068;12.058;2022-09-09T22:12:23;15.00;99.90
10042;DHT22;5061;49.068;12.058;2022-09-09T22:15:45;15.00;99.90
10042;DHT22;5061;49.068;12.058;2022-09-09T22:19:06;15.00;99.90
10042;DHT22;5061;49.068;12.058;2022-09-09T22:22:27;14.90;99.90
10042;DHT22;5061;49.068;12.058;2022-09-09T22:25:48;14.90;99.90
10042;DHT22;5061;49.068;12.058;2022-09-09T22:29:09;14.90;99.90
10042;DHT22;5061;49.068;12.058;2022-09-09T22:32:31;14.90;99.90
10042;DHT22;5061;49.068;12.058;2022-09-09T22:35:51;14.90;99.90
10042;DHT22;5061;49.068;12.058;2022-09-09T22:39:12;14.90;99.90
10042;DHT22;5061;49.068;12.058;2022-09-09T22:42:33;14.80;99.90
10042;DHT22;5061;49.068;12.058;2022-09-09T22:45:54;14.80;99.90
10042;DHT22;5061;49.068;12.058;2022-09-09T22:49:14;14.80;99.90
10042;DHT22;5061;49.068;12.058;2022-09-09T22:52:35;14.80;99.90